AirNav   Air Wisconsin Up To $57,000 Bonus
 
 1028 users online  

FL97 Tangerine Airport
Zellwood, Florida, USA

GOING TO ZELLWOOD?


FAA INFORMATION EFFECTIVE 12 SEPTEMBER 2019

Location

FAA Identifier: FL97
Lat/Long: 28-45-36.9770N 081-36-21.2650W
28-45.616283N 081-36.354417W
28.7602714,-81.6059069
(estimated)
Elevation: 125 ft. / 38 m (estimated)
Variation: 03W (1985)
From city: 3 miles SE of ZELLWOOD, FL
Time zone: UTC -4 (UTC -5 during Standard Time)
Zip code: 32712

Airport Operations

Airport use: Private use. Permission required prior to landing
Activation date: 05/1977
Control tower: no
ARTCC: JACKSONVILLE CENTER
FSS: SAINT PETERSBURG FLIGHT SERVICE STATION
Attendance: UNATNDD
Wind indicator: no
Segmented circle: no

Airport Communications

WX ASOS at LEE (11 nm W): 134.325 (352-787-1565)
WX ASOS at ORL (19 nm SE): PHONE 407-658-6753
WX ASOS at SFB (20 nm E): PHONE 407-321-9384

Nearby radio navigation aids

VOR radial/distance  VOR name  Freq  Var
ORLr312/19.3ORLANDO VORTAC112.2000E

Airport Services

Runway Information

Runway 9/27

Dimensions: 2600 x 100 ft. / 792 x 30 m
Surface: turf
RUNWAY 9  RUNWAY 27
Traffic pattern: leftright
Obstructions: trees, marked, 400 ft. from runwaytrees, marked, 400 ft. from runway

Airport Ownership and Management from official FAA records

Ownership: Privately-owned
Owner: JAMES KIMBALL
BOX 849
ZELLWOOD, FL 32798
Phone 407-889-3451
Manager: JAMES KIMBALL
BOX 849
ZELLWOOD, FL 32798
Phone 407-889-3451

Airport Operational Statistics

Aircraft based on the field: 1
Single engine airplanes: 1
    

Additional Remarks

FOR CD CTC JACKSONVILLE ARTCC AT 904-845-1592.

Instrument Procedures

There are no published instrument procedures at FL97.

Some nearby airports with instrument procedures:

X04 - Orlando Apopka Airport (3 nm S)
X23 - Umatilla Municipal Airport (10 nm N)
KLEE - Leesburg International Airport (11 nm W)
KORL - Executive Airport (19 nm SE)
KSFB - Orlando Sanford International Airport (20 nm E)
 
Loc | Ops | Rwys | IFR | FBO | Links
Com | Nav | Svcs | Stats | Notes


 
Area around FL97 (Tangerine Airport)
 
Road maps at: MapQuest Bing Google
 
Aerial photo
No photo
 
Sectional chart

 
Airport distance calculator
Flying to Tangerine Airport? Find the distance to fly.

From to FL97

Sunrise and sunset
Times for 21-Sep-2019
 Local
(UTC-4)
 Zulu
(UTC)
Morning civil twilight06:5210:52
Sunrise07:1511:15
Sunset19:2423:24
Evening civil twilight19:4723:47

Current date and time
Zulu (UTC)  21-Sep-2019 20:54:39
Local (UTC-4)  21-Sep-2019 16:54:39
 
METAR
KLEE 
12nm W 
211953Z AUTO 08011KT 10SM BKN070 30/18 A3013 RMK AO2 SLP201 T03000183
KORL 
19nm SE 
211953Z AUTO 08012KT 10SM OVC065 28/18 A3013 RMK AO2 SLP205 T02830178
KSFB 
20nm E 
211953Z AUTO 07015KT 10SM OVC060 28/18 A3013 RMK AO2 SLP202 T02830178
TAF
KLEE 
12nm W 
211722Z 2118/2218 07014G22KT P6SM SCT060 FM220000 06009KT P6SM FEW025 SCT035 FM221400 08011G17KT P6SM FEW035
NOTAMs
Click for the latest NOTAMs
NOTAMs are issued by the DoD/FAA and will open in a separate window not controlled by AirNav.

 

 
 

Would you like to see your business listed on this page?

 If your business provides an interesting product or service to pilots, flight crews, aircraft, or users of the Tangerine Airport, you should consider listing it here.  To start the listing process, click on the button below
 
Add a business
 

Other Pages about Tangerine Airport

Update a link
 
Copyright © AirNav, LLC. All rights reserved. Privacy Policy  Contact